NK12 weather

Donnelly's Airport
Wales, New York, United States

Public forecast

Using degrees Fahrenheit for public forecast. Weather courtesy of forecast.io.

METAR (pilot weather report)

Closest report is Buffalo Niagara International Airport, 13.1 nm (24.3 km) NW. Retrieved 2019/06/16 17:54 UTC (26 minutes ago):

KBUF 161754Z 05007KT 10SM SCT010 BKN022 OVC050 14/12 A2988 RMK AO2 RAE38 SLP116 P0000 60005 T01440122 10150 20122 51008

TAF (pilot weather forecast)

Closest forecast is Buffalo Niagara International Airport, 13.1 nm (24.3 km) NW. Retrieved 2019/06/16 18:36 UTC (0 seconds ago):

TAF KBUF 161734Z 1618/1718 05008KT P6SM OVC025 FM162000 05008KT P6SM SCT025 BKN040 FM170200 08004KT P6SM BKN060 FM170800 VRB03KT 3SM BR SCT060 FM171300 08008KT P6SM BKN100